createdAt,value
2019-02-07T00:00:22.338Z,99.90
2019-02-07T00:02:54.861Z,99.90
2019-02-07T00:05:28.259Z,99.90
2019-02-07T00:08:07.805Z,99.90
2019-02-07T00:10:34.874Z,99.90
2019-02-07T00:13:04.469Z,99.90
2019-02-07T00:15:36.636Z,99.90
2019-02-07T00:18:06.228Z,99.90
2019-02-07T00:20:36.332Z,99.90
2019-02-07T00:23:07.110Z,99.90
2019-02-07T00:25:38.978Z,99.90
2019-02-07T00:28:08.397Z,99.90
2019-02-07T00:30:38.114Z,99.90
2019-02-07T00:33:11.470Z,99.90
2019-02-07T00:35:40.858Z,99.90
2019-02-07T00:38:12.095Z,99.90
2019-02-07T00:40:41.469Z,99.90
2019-02-07T00:43:15.670Z,99.90
2019-02-07T00:45:50.789Z,99.90
2019-02-07T00:48:26.274Z,99.90
2019-02-07T00:50:55.685Z,99.90
2019-02-07T00:53:24.979Z,99.90
2019-02-07T00:55:56.041Z,99.90
2019-02-07T00:58:25.351Z,99.90
2019-02-07T01:00:56.989Z,99.90
2019-02-07T01:03:32.782Z,99.90
2019-02-07T01:06:05.147Z,99.90
2019-02-07T01:08:34.557Z,99.90
2019-02-07T01:11:03.964Z,99.90
2019-02-07T01:13:33.395Z,99.90
2019-02-07T01:16:05.980Z,99.90
2019-02-07T01:18:35.372Z,99.90
2019-02-07T01:21:07.051Z,99.90
2019-02-07T01:23:37.446Z,99.90
2019-02-07T01:26:06.869Z,99.90
2019-02-07T01:28:36.329Z,99.90
2019-02-07T01:31:12.661Z,99.90
2019-02-07T01:33:41.608Z,99.90
2019-02-07T01:36:12.274Z,99.90
2019-02-07T01:38:44.887Z,99.90
2019-02-07T01:41:18.318Z,99.90
2019-02-07T01:43:48.387Z,99.90
2019-02-07T01:46:17.845Z,99.90
2019-02-07T01:48:49.289Z,99.90
2019-02-07T01:51:18.630Z,99.90
2019-02-07T01:53:51.273Z,99.90
2019-02-07T01:56:21.118Z,99.90
2019-02-07T01:58:53.066Z,99.90
2019-02-07T02:01:29.842Z,99.90
2019-02-07T02:03:59.458Z,99.90
2019-02-07T02:06:30.022Z,99.90
2019-02-07T02:08:59.326Z,99.90
2019-02-07T02:11:30.344Z,99.90
2019-02-07T02:14:02.427Z,99.90
2019-02-07T02:16:31.882Z,99.90
2019-02-07T02:19:02.477Z,99.90
2019-02-07T02:21:33.266Z,99.90
2019-02-07T02:24:02.882Z,99.90
2019-02-07T02:26:35.210Z,99.90
2019-02-07T02:29:06.114Z,99.90
2019-02-07T02:31:35.503Z,99.90
2019-02-07T02:34:07.658Z,99.90
2019-02-07T02:36:41.023Z,99.90
2019-02-07T02:39:10.606Z,99.90
2019-02-07T02:47:51.215Z,99.90
2019-02-07T02:50:21.511Z,99.90
2019-02-07T02:52:50.946Z,99.90
2019-02-07T02:55:33.439Z,99.90
2019-02-07T02:58:05.908Z,99.90
2019-02-07T03:00:53.125Z,99.90
2019-02-07T03:03:33.789Z,99.90
2019-02-07T03:06:42.103Z,99.90
2019-02-07T03:09:29.508Z,99.90
2019-02-07T03:12:16.503Z,99.90
2019-02-07T03:15:13.940Z,99.90
2019-02-07T03:18:05.381Z,99.90
2019-02-07T03:20:53.730Z,99.90
2019-02-07T03:23:51.291Z,99.90
2019-02-07T03:26:34.299Z,99.90
2019-02-07T03:29:31.001Z,99.90
2019-02-07T03:32:22.568Z,99.90
2019-02-07T03:35:16.890Z,99.90
2019-02-07T03:38:09.621Z,99.90
2019-02-07T03:41:06.813Z,99.90
2019-02-07T03:44:07.401Z,99.90
2019-02-07T03:46:54.644Z,99.90
2019-02-07T03:49:52.604Z,99.90
2019-02-07T03:52:32.688Z,99.90
2019-02-07T03:55:19.770Z,99.90
2019-02-07T03:58:09.984Z,99.90
2019-02-07T04:00:57.320Z,99.90
2019-02-07T04:03:47.383Z,99.90
2019-02-07T04:06:42.905Z,99.90
2019-02-07T04:09:29.848Z,99.90
2019-02-07T04:12:27.045Z,99.90
2019-02-07T04:15:19.603Z,99.90
2019-02-07T04:18:27.326Z,99.90
2019-02-07T04:21:11.629Z,99.90
2019-02-07T04:24:09.218Z,99.90
2019-02-07T04:27:03.572Z,99.90
2019-02-07T04:29:58.625Z,99.90
2019-02-07T04:32:52.947Z,99.90
2019-02-07T04:35:39.748Z,99.90
2019-02-07T04:38:46.594Z,99.90
2019-02-07T04:41:35.014Z,99.90
2019-02-07T04:44:24.291Z,99.90
2019-02-07T04:47:20.888Z,99.90
2019-02-07T04:50:18.123Z,99.90
2019-02-07T04:53:09.299Z,99.90
2019-02-07T04:55:56.429Z,99.90
2019-02-07T04:58:43.023Z,99.90
2019-02-07T05:01:49.318Z,99.90
2019-02-07T05:04:40.664Z,99.90
2019-02-07T05:07:25.264Z,99.90
2019-02-07T05:10:13.634Z,99.90
2019-02-07T05:13:11.156Z,99.90
2019-02-07T05:16:01.383Z,99.90
2019-02-07T05:19:00.302Z,99.90
2019-02-07T05:21:48.744Z,99.90
2019-02-07T05:24:40.198Z,99.90
2019-02-07T05:27:29.969Z,99.90
2019-02-07T05:30:14.715Z,99.90
2019-02-07T05:33:01.771Z,99.90
2019-02-07T05:35:49.825Z,99.90
2019-02-07T05:38:53.190Z,99.90
2019-02-07T05:41:46.186Z,99.90
2019-02-07T05:44:34.376Z,99.90
2019-02-07T05:47:35.057Z,99.90
2019-02-07T05:50:36.304Z,99.90
2019-02-07T05:53:23.216Z,99.90
2019-02-07T05:56:20.773Z,99.90
2019-02-07T05:59:06.343Z,99.90
2019-02-07T06:02:01.560Z,99.90
2019-02-07T06:04:48.666Z,99.90
2019-02-07T06:07:39.784Z,99.90
2019-02-07T06:10:28.029Z,99.90
2019-02-07T09:23:52.906Z,67.40
2019-02-07T09:26:35.555Z,27.90
2019-02-07T09:29:25.714Z,25.10
2019-02-07T09:32:08.822Z,25.50
2019-02-07T09:35:00.674Z,27.80
2019-02-07T09:38:07.984Z,30.00
2019-02-07T09:41:01.552Z,32.10
2019-02-07T09:43:50.682Z,34.10
2019-02-07T09:46:48.705Z,35.40
2019-02-07T09:49:36.309Z,40.40
2019-02-07T09:52:31.422Z,62.50
2019-02-07T12:23:12.599Z,96.40
2019-02-07T12:26:11.048Z,99.60
2019-02-07T12:34:43.644Z,99.90
2019-02-07T13:28:18.783Z,99.90
2019-02-07T13:31:07.960Z,99.90
2019-02-07T13:33:51.562Z,99.90
2019-02-07T13:36:39.439Z,99.90
2019-02-07T13:39:27.291Z,99.90
2019-02-07T13:42:15.351Z,99.90
2019-02-07T13:44:56.397Z,99.90
2019-02-07T13:47:49.651Z,99.90
2019-02-07T13:50:47.573Z,99.90
2019-02-07T13:56:41.804Z,99.90
2019-02-07T13:59:23.666Z,99.90
2019-02-07T14:02:21.674Z,99.90
2019-02-07T14:05:11.058Z,99.90
2019-02-07T14:08:04.799Z,99.90
2019-02-07T14:11:05.766Z,99.90
2019-02-07T14:13:54.911Z,99.90
2019-02-07T14:16:47.756Z,99.90
2019-02-07T14:19:36.791Z,99.90
2019-02-07T14:22:24.536Z,99.90
2019-02-07T14:25:12.084Z,99.90
2019-02-07T14:28:08.284Z,99.90
2019-02-07T14:31:09.198Z,99.90
2019-02-07T14:34:01.385Z,99.90
2019-02-07T14:36:41.584Z,99.90
2019-02-07T14:39:29.146Z,99.90
2019-02-07T14:42:16.018Z,99.90
2019-02-07T14:44:56.914Z,99.90
2019-02-07T14:47:26.976Z,99.90
2019-02-07T14:49:57.059Z,99.90
2019-02-07T14:52:27.182Z,99.90
2019-02-07T14:54:57.626Z,99.90
2019-02-07T14:57:27.829Z,99.90
2019-02-07T14:59:58.227Z,99.90
2019-02-07T15:02:28.359Z,99.90
2019-02-07T15:04:58.480Z,99.90
2019-02-07T15:07:28.604Z,99.90
2019-02-07T15:09:58.723Z,99.90
2019-02-07T15:12:29.941Z,99.90
2019-02-07T15:15:02.090Z,99.90
2019-02-07T15:17:32.215Z,99.90
2019-02-07T15:20:02.233Z,99.90
2019-02-07T15:22:32.243Z,99.90
2019-02-07T15:25:02.317Z,99.90
2019-02-07T15:27:32.535Z,99.90
2019-02-07T15:30:02.635Z,99.90
2019-02-07T15:32:32.745Z,99.90
2019-02-07T15:35:07.385Z,99.90
2019-02-07T15:37:37.579Z,99.90
2019-02-07T15:40:13.165Z,99.90
2019-02-07T15:42:43.305Z,99.90
2019-02-07T15:45:14.820Z,99.90
2019-02-07T15:47:45.327Z,99.90
2019-02-07T15:50:20.341Z,99.90
2019-02-07T15:52:53.452Z,99.90
2019-02-07T15:55:23.820Z,99.90
2019-02-07T15:57:54.227Z,99.90
2019-02-07T16:00:42.581Z,99.90
2019-02-07T16:03:31.734Z,99.90
2019-02-07T16:06:01.948Z,99.90
2019-02-07T16:08:32.175Z,99.90
2019-02-07T16:11:02.516Z,99.90
2019-02-07T16:13:32.758Z,99.90
2019-02-07T16:16:03.161Z,99.90
2019-02-07T16:18:33.337Z,99.90
2019-02-07T16:21:03.624Z,99.90
2019-02-07T16:23:34.006Z,99.90
2019-02-07T16:26:04.274Z,99.90
2019-02-07T16:28:34.529Z,99.90
2019-02-07T16:31:05.954Z,99.90
2019-02-07T16:33:36.205Z,99.90
2019-02-07T16:36:06.784Z,99.90
2019-02-07T16:38:36.920Z,99.90
2019-02-07T16:41:07.531Z,99.90
2019-02-07T16:43:37.797Z,99.90
2019-02-07T16:46:08.016Z,99.90
2019-02-07T16:48:38.221Z,99.90
2019-02-07T16:51:08.594Z,99.90
2019-02-07T16:53:39.003Z,99.90
2019-02-07T16:56:09.345Z,99.90
2019-02-07T16:58:39.661Z,99.90
2019-02-07T17:01:14.410Z,99.90
2019-02-07T17:03:44.591Z,99.90
2019-02-07T17:06:14.796Z,99.90
2019-02-07T17:08:46.618Z,99.90
2019-02-07T17:11:19.013Z,99.90
2019-02-07T17:13:49.295Z,99.90
2019-02-07T17:16:22.794Z,99.90
2019-02-07T17:18:57.133Z,99.90
2019-02-07T17:21:28.624Z,99.90
2019-02-07T17:24:04.475Z,99.90
2019-02-07T17:26:36.451Z,99.90
2019-02-07T17:29:08.649Z,99.90
2019-02-07T17:31:39.415Z,99.90
2019-02-07T17:34:10.187Z,99.90
2019-02-07T17:36:45.673Z,99.90
2019-02-07T17:39:17.818Z,99.90
2019-02-07T17:41:48.605Z,99.90
2019-02-07T17:44:19.453Z,99.90
2019-02-07T17:46:51.131Z,99.90
2019-02-07T17:49:21.708Z,99.90
2019-02-07T17:51:54.879Z,99.90
2019-02-07T17:54:31.661Z,99.90
2019-02-07T17:57:04.139Z,99.90
2019-02-07T17:59:38.857Z,99.90
2019-02-07T18:02:19.323Z,99.90
2019-02-07T18:04:51.255Z,99.90
2019-02-07T18:07:24.277Z,99.90
2019-02-07T18:09:55.660Z,99.90
2019-02-07T18:12:26.447Z,99.90
2019-02-07T18:14:57.978Z,99.90
2019-02-07T18:17:29.370Z,99.90
2019-02-07T18:20:04.119Z,99.90
2019-02-07T18:22:34.809Z,99.90
2019-02-07T18:25:08.945Z,99.90
2019-02-07T18:28:01.689Z,99.90
2019-02-07T18:30:37.273Z,99.90
2019-02-07T18:33:09.948Z,99.90
2019-02-07T18:35:42.418Z,99.90
2019-02-07T18:38:15.458Z,99.90
2019-02-07T18:40:47.506Z,99.90
2019-02-07T18:43:19.853Z,99.90
2019-02-07T18:45:56.599Z,99.90
2019-02-07T18:48:29.022Z,99.90
2019-02-07T18:50:56.460Z,99.90
2019-02-07T18:53:28.071Z,99.90
2019-02-07T18:56:02.862Z,99.90
2019-02-07T18:58:34.907Z,99.90
2019-02-07T19:01:06.469Z,99.90
2019-02-07T19:03:37.274Z,99.90
2019-02-07T19:06:08.537Z,99.90
2019-02-07T19:08:39.322Z,99.90
2019-02-07T19:11:12.477Z,99.90
2019-02-07T19:13:43.469Z,99.90
2019-02-07T19:16:19.997Z,99.90
2019-02-07T19:18:51.177Z,99.90
2019-02-07T19:21:23.501Z,99.90
2019-02-07T19:23:55.538Z,99.90
2019-02-07T19:26:29.082Z,99.90
2019-02-07T19:28:59.703Z,99.90
2019-02-07T19:31:31.902Z,99.90
2019-02-07T19:34:02.657Z,99.90
2019-02-07T19:36:36.361Z,99.90
2019-02-07T19:39:10.849Z,99.90
2019-02-07T19:41:41.419Z,99.90
2019-02-07T19:44:13.634Z,99.90
2019-02-07T19:46:44.385Z,99.90
2019-02-07T19:49:16.373Z,99.90
2019-02-07T19:51:46.860Z,99.90
2019-02-07T19:54:17.459Z,99.90
2019-02-07T19:56:48.244Z,99.90
2019-02-07T19:59:19.718Z,99.90
2019-02-07T20:01:51.022Z,99.90
2019-02-07T20:04:22.271Z,99.90
2019-02-07T20:06:53.878Z,99.90
2019-02-07T20:09:24.277Z,99.90
2019-02-07T20:11:54.852Z,99.90
2019-02-07T20:14:27.872Z,99.90
2019-02-07T20:16:58.938Z,99.90
2019-02-07T20:19:31.966Z,99.90
2019-02-07T20:22:07.552Z,99.90
2019-02-07T20:24:45.642Z,99.90
2019-02-07T20:27:10.582Z,99.90
2019-02-07T20:29:41.250Z,99.90
2019-02-07T20:32:12.083Z,99.90
2019-02-07T20:34:43.550Z,99.90
2019-02-07T20:37:14.434Z,99.90
2019-02-07T20:39:44.941Z,99.90
2019-02-07T20:42:19.240Z,99.90
2019-02-07T20:44:49.982Z,99.90
2019-02-07T20:47:20.392Z,99.90
2019-02-07T20:49:51.195Z,99.90
2019-02-07T20:52:27.185Z,99.90
2019-02-07T20:54:54.567Z,99.90
2019-02-07T20:57:25.291Z,99.90
2019-02-07T20:59:55.517Z,99.90
2019-02-07T21:04:55.332Z,99.90
